createdAt,value
2022-12-16T00:00:41.719Z,30.50
2022-12-16T00:03:09.183Z,27.77
2022-12-16T00:05:42.651Z,27.40
2022-12-16T00:08:11.616Z,26.87
2022-12-16T00:10:53.044Z,27.93
2022-12-16T00:13:22.143Z,28.23
2022-12-16T00:15:49.464Z,26.80
2022-12-16T00:18:19.954Z,28.23
2022-12-16T00:20:52.301Z,29.00
2022-12-16T00:23:22.519Z,25.87
2022-12-16T00:25:50.243Z,26.60
2022-12-16T00:28:22.906Z,27.10
2022-12-16T00:30:51.205Z,25.63
2022-12-16T00:33:19.903Z,26.17
2022-12-16T00:35:47.655Z,23.97
2022-12-16T00:38:15.517Z,24.23
2022-12-16T00:40:42.842Z,31.57
2022-12-16T00:43:10.187Z,26.77
2022-12-16T00:45:37.694Z,26.63
2022-12-16T00:48:05.421Z,21.90
2022-12-16T00:50:32.964Z,23.23
2022-12-16T00:53:00.582Z,23.73
2022-12-16T00:55:27.881Z,20.50
2022-12-16T00:57:55.177Z,22.63
2022-12-16T01:00:23.610Z,20.40
2022-12-16T01:02:51.664Z,21.93
2022-12-16T01:05:22.219Z,20.87
2022-12-16T01:07:49.647Z,22.03
2022-12-16T01:10:19.688Z,22.53
2022-12-16T01:12:47.052Z,21.70
2022-12-16T01:15:14.986Z,22.57
2022-12-16T01:17:42.510Z,24.30
2022-12-16T01:20:10.171Z,20.83
2022-12-16T01:22:37.479Z,19.83
2022-12-16T01:25:04.957Z,18.50
2022-12-16T01:27:32.620Z,24.13
2022-12-16T01:29:59.837Z,23.23
2022-12-16T01:32:27.169Z,24.47
2022-12-16T01:34:55.795Z,26.47
2022-12-16T01:37:24.371Z,27.57
2022-12-16T01:39:52.393Z,24.30
2022-12-16T01:42:21.213Z,23.33
2022-12-16T01:44:49.767Z,24.80
2022-12-16T01:47:23.265Z,27.03
2022-12-16T01:50:00.350Z,26.80
2022-12-16T01:52:40.199Z,25.43
2022-12-16T01:55:13.595Z,24.00
2022-12-16T01:57:42.068Z,24.77
2022-12-16T02:00:10.452Z,22.27
2022-12-16T02:02:41.805Z,22.27
2022-12-16T02:05:21.158Z,25.33
2022-12-16T02:08:14.801Z,23.47
2022-12-16T02:10:45.125Z,22.10
2022-12-16T02:13:24.731Z,24.67
2022-12-16T02:16:04.986Z,24.80
2022-12-16T02:18:44.427Z,26.27
2022-12-16T02:21:17.798Z,23.63
2022-12-16T02:24:14.861Z,22.57
2022-12-16T02:27:08.398Z,24.70
2022-12-16T02:29:48.353Z,23.33
2022-12-16T02:32:21.837Z,22.23
2022-12-16T02:34:49.389Z,22.93
2022-12-16T02:37:24.647Z,22.83
2022-12-16T02:40:01.904Z,23.83
2022-12-16T02:42:42.218Z,22.83
2022-12-16T02:45:27.740Z,23.13
2022-12-16T02:47:55.024Z,23.63
2022-12-16T02:50:22.384Z,24.07
2022-12-16T02:52:49.833Z,21.23
2022-12-16T02:55:17.552Z,21.80
2022-12-16T02:57:53.275Z,22.70
2022-12-16T03:00:22.299Z,23.10
2022-12-16T03:03:07.738Z,24.70
2022-12-16T03:05:37.628Z,22.50
2022-12-16T03:08:08.338Z,23.50
2022-12-16T03:10:38.158Z,24.00
2022-12-16T03:13:06.296Z,24.43
2022-12-16T03:15:35.404Z,25.33
2022-12-16T03:18:04.376Z,21.90
2022-12-16T03:20:36.649Z,22.87
2022-12-16T03:23:05.906Z,25.67
2022-12-16T03:25:35.637Z,22.33
2022-12-16T03:28:13.584Z,23.50
2022-12-16T03:30:43.275Z,21.23
2022-12-16T03:33:34.139Z,22.00
2022-12-16T03:36:06.101Z,24.33
2022-12-16T03:38:34.257Z,25.30
2022-12-16T03:41:02.026Z,23.33
2022-12-16T03:43:29.706Z,24.27
2022-12-16T03:46:01.098Z,23.10
2022-12-16T03:48:28.387Z,20.83
2022-12-16T03:50:55.694Z,21.20
2022-12-16T03:53:26.312Z,21.40
2022-12-16T03:55:54.274Z,21.27
2022-12-16T03:58:21.731Z,20.40
2022-12-16T04:00:49.016Z,19.33
2022-12-16T04:03:16.432Z,19.60
2022-12-16T04:05:43.868Z,21.97
2022-12-16T04:08:11.136Z,20.93
2022-12-16T04:10:57.449Z,21.67
2022-12-16T04:13:43.270Z,20.83
2022-12-16T04:16:34.280Z,22.50
2022-12-16T04:19:21.039Z,23.37
2022-12-16T04:22:07.209Z,21.50
2022-12-16T04:24:36.372Z,20.10
2022-12-16T04:27:22.411Z,22.30
2022-12-16T04:30:08.280Z,20.37
2022-12-16T04:32:54.291Z,21.40
2022-12-16T04:35:40.357Z,20.50
2022-12-16T04:38:26.495Z,20.30
2022-12-16T04:41:12.426Z,19.93
2022-12-16T04:43:58.858Z,21.17
2022-12-16T04:46:44.920Z,22.40
2022-12-16T04:49:31.470Z,20.77
2022-12-16T04:52:17.480Z,21.53
2022-12-16T04:55:04.619Z,21.40
2022-12-16T04:57:51.339Z,20.80
2022-12-16T05:00:37.347Z,19.87
2022-12-16T05:03:24.010Z,24.43
2022-12-16T05:06:10.193Z,21.93
2022-12-16T05:08:56.651Z,22.17
2022-12-16T05:11:42.689Z,21.23
2022-12-16T05:14:28.789Z,23.73
2022-12-16T05:17:14.725Z,21.73
2022-12-16T05:20:00.910Z,20.37
2022-12-16T05:22:47.933Z,22.37
2022-12-16T05:25:33.926Z,21.73
2022-12-16T05:28:19.943Z,20.17
2022-12-16T05:31:06.035Z,22.03
2022-12-16T05:33:52.216Z,24.03
2022-12-16T05:36:38.236Z,23.73
2022-12-16T05:39:44.053Z,21.90
2022-12-16T05:42:40.369Z,23.67
2022-12-16T05:45:26.582Z,24.87
2022-12-16T05:48:13.015Z,21.67
2022-12-16T05:50:59.208Z,23.57
2022-12-16T05:53:45.213Z,23.83
2022-12-16T05:56:31.071Z,22.50
2022-12-16T05:59:17.449Z,22.00
2022-12-16T06:02:03.522Z,23.40
2022-12-16T06:04:54.382Z,23.17
2022-12-16T06:07:40.619Z,24.53
2022-12-16T06:10:27.007Z,22.20
2022-12-16T06:13:13.160Z,23.23
2022-12-16T06:16:03.671Z,23.40
2022-12-16T06:18:53.121Z,22.30
2022-12-16T06:21:39.011Z,21.63
2022-12-16T06:24:25.151Z,23.37
2022-12-16T06:27:11.188Z,24.87
2022-12-16T06:29:57.205Z,24.67
2022-12-16T06:32:43.190Z,24.50
2022-12-16T06:35:29.270Z,26.50
2022-12-16T06:38:15.069Z,25.43
2022-12-16T06:41:01.101Z,24.43
2022-12-16T06:43:47.113Z,22.43
2022-12-16T06:46:33.139Z,24.40
2022-12-16T06:49:19.257Z,23.80
2022-12-16T06:52:05.202Z,25.93
2022-12-16T06:54:51.236Z,24.83
2022-12-16T06:57:37.258Z,24.37
2022-12-16T07:00:23.787Z,27.23
2022-12-16T07:03:20.367Z,25.03
2022-12-16T07:06:07.716Z,26.87
2022-12-16T07:08:53.736Z,23.40
2022-12-16T07:11:39.692Z,24.17
2022-12-16T07:14:25.677Z,26.60
2022-12-16T07:17:16.878Z,24.40
2022-12-16T07:20:03.629Z,24.77
2022-12-16T07:22:58.483Z,28.30
2022-12-16T07:25:47.452Z,26.13
2022-12-16T07:28:33.515Z,28.83
2022-12-16T07:31:33.619Z,25.67
2022-12-16T07:34:19.982Z,24.63
2022-12-16T07:37:05.983Z,26.17
2022-12-16T07:39:55.183Z,28.57
2022-12-16T07:42:42.164Z,28.63
2022-12-16T07:45:28.700Z,26.37
2022-12-16T07:48:14.827Z,27.83
2022-12-16T07:51:01.293Z,28.17
2022-12-16T07:53:47.294Z,29.93
2022-12-16T07:56:33.408Z,28.60
2022-12-16T07:59:19.442Z,27.27
2022-12-16T08:02:05.621Z,30.60
2022-12-16T08:04:51.929Z,30.87
2022-12-16T08:07:38.053Z,33.17
2022-12-16T08:10:24.126Z,29.97
2022-12-16T08:13:10.144Z,30.80
2022-12-16T08:15:56.093Z,26.10
2022-12-16T08:18:42.041Z,28.30
2022-12-16T08:21:28.068Z,29.07
2022-12-16T08:24:15.732Z,32.03
2022-12-16T08:27:02.023Z,32.73
2022-12-16T08:29:48.196Z,29.20
2022-12-16T08:32:34.295Z,30.53
2022-12-16T08:35:20.691Z,33.97
2022-12-16T08:38:12.265Z,44.87
2022-12-16T08:41:03.329Z,42.93
2022-12-16T08:44:07.000Z,40.50
2022-12-16T08:46:53.155Z,44.23
2022-12-16T08:49:39.445Z,43.43
2022-12-16T08:52:25.534Z,45.77
2022-12-16T08:55:11.404Z,44.80
2022-12-16T08:57:57.480Z,45.80
2022-12-16T09:00:43.623Z,43.33
2022-12-16T09:03:29.754Z,47.30
2022-12-16T09:06:19.069Z,44.80
2022-12-16T09:09:05.763Z,46.97
2022-12-16T09:11:52.175Z,46.40
2022-12-16T09:14:38.062Z,45.93
2022-12-16T09:17:23.945Z,48.90
2022-12-16T09:20:09.883Z,46.43
2022-12-16T09:22:55.983Z,47.33
2022-12-16T09:25:41.947Z,49.57
2022-12-16T09:28:27.948Z,50.13
2022-12-16T09:31:13.860Z,49.90
2022-12-16T09:33:59.877Z,47.83
2022-12-16T09:36:45.934Z,49.73
2022-12-16T09:39:42.791Z,47.13
2022-12-16T09:42:35.897Z,47.23
2022-12-16T09:45:32.060Z,50.27
2022-12-16T09:48:23.125Z,47.90
2022-12-16T09:51:11.136Z,46.53
2022-12-16T09:53:57.409Z,48.23
2022-12-16T09:56:49.334Z,46.67
2022-12-16T09:59:38.285Z,46.97
2022-12-16T10:02:29.932Z,48.53
2022-12-16T10:05:16.383Z,48.40
2022-12-16T10:08:06.093Z,48.43
2022-12-16T10:11:11.298Z,44.00
2022-12-16T10:14:06.129Z,45.70
2022-12-16T10:17:04.151Z,44.67
2022-12-16T10:19:49.999Z,45.40
2022-12-16T10:22:36.187Z,43.87
2022-12-16T10:25:34.014Z,47.50
2022-12-16T10:28:24.977Z,43.83
2022-12-16T10:31:11.207Z,47.57
2022-12-16T10:33:57.179Z,46.63
2022-12-16T10:36:43.969Z,49.20
2022-12-16T10:39:45.203Z,47.77
2022-12-16T10:42:38.231Z,45.23
2022-12-16T10:45:25.198Z,49.07
2022-12-16T10:48:11.202Z,49.53
2022-12-16T10:50:57.113Z,51.90
2022-12-16T10:53:46.990Z,50.67
2022-12-16T10:56:32.787Z,50.37
2022-12-16T10:59:22.614Z,53.77
2022-12-16T11:02:22.406Z,50.97
2022-12-16T11:05:09.114Z,50.47
2022-12-16T11:08:04.086Z,49.73
2022-12-16T11:10:52.953Z,49.33
2022-12-16T11:13:43.548Z,45.20
2022-12-16T11:16:45.803Z,42.33
2022-12-16T11:19:39.552Z,44.37
2022-12-16T11:22:27.215Z,44.23
2022-12-16T11:25:31.414Z,42.83
2022-12-16T11:28:33.995Z,42.77
2022-12-16T11:31:25.668Z,42.47
2022-12-16T11:34:11.855Z,43.17
2022-12-16T11:36:58.740Z,40.77
2022-12-16T11:39:46.669Z,41.53
2022-12-16T11:42:39.233Z,40.30
2022-12-16T11:45:26.002Z,41.67
2022-12-16T11:48:16.134Z,42.57
2022-12-16T11:51:17.415Z,43.20
2022-12-16T11:54:05.843Z,37.03
2022-12-16T11:56:54.206Z,40.53
2022-12-16T11:59:46.237Z,41.43
2022-12-16T12:02:36.312Z,42.17
2022-12-16T12:05:22.405Z,39.50
2022-12-16T12:08:16.965Z,43.03
2022-12-16T12:11:15.426Z,43.37
2022-12-16T12:14:01.352Z,42.70
2022-12-16T12:17:01.851Z,42.37
2022-12-16T12:19:48.835Z,43.37
2022-12-16T12:22:44.849Z,43.30
2022-12-16T12:26:06.125Z,45.43
2022-12-16T12:28:52.270Z,41.47
2022-12-16T12:31:44.339Z,44.70
2022-12-16T12:34:36.603Z,40.57
2022-12-16T12:37:39.359Z,45.33
2022-12-16T12:40:34.139Z,43.50
2022-12-16T12:43:22.156Z,39.57
2022-12-16T12:46:14.098Z,43.50
2022-12-16T12:49:12.103Z,46.23
2022-12-16T12:52:06.759Z,42.93
2022-12-16T12:54:55.900Z,39.40
2022-12-16T12:57:43.912Z,44.03
2022-12-16T13:00:29.869Z,45.40
2022-12-16T13:03:25.104Z,43.47
2022-12-16T13:06:11.367Z,42.70
2022-12-16T13:08:57.431Z,42.70
2022-12-16T13:11:43.976Z,42.00
2022-12-16T13:14:49.106Z,41.23
2022-12-16T13:17:35.480Z,41.10
2022-12-16T13:20:22.002Z,42.17
2022-12-16T13:23:08.663Z,42.83
2022-12-16T13:26:11.002Z,41.67
2022-12-16T13:29:08.538Z,41.63
2022-12-16T13:32:14.673Z,40.47
2022-12-16T13:35:08.300Z,41.03
2022-12-16T13:37:54.484Z,51.67
2022-12-16T13:40:41.882Z,43.03
2022-12-16T13:43:54.114Z,44.90
2022-12-16T13:46:40.436Z,41.35
2022-12-16T13:49:58.304Z,41.77
2022-12-16T13:53:04.322Z,42.47
2022-12-16T13:56:09.461Z,41.50
2022-12-16T13:59:09.982Z,40.13
2022-12-16T14:01:57.472Z,41.00
2022-12-16T14:04:45.224Z,43.53
2022-12-16T14:07:31.616Z,43.50
2022-12-16T14:10:17.470Z,41.57
2022-12-16T14:13:16.419Z,43.07
2022-12-16T14:16:14.578Z,38.67
2022-12-16T14:19:04.442Z,40.93
2022-12-16T14:21:54.390Z,40.83
2022-12-16T14:24:47.097Z,42.23
2022-12-16T14:27:34.569Z,40.27
2022-12-16T14:30:21.031Z,42.93
2022-12-16T14:33:07.005Z,40.73
2022-12-16T14:35:53.014Z,43.50
2022-12-16T14:38:46.669Z,41.67
2022-12-16T14:41:33.503Z,40.53
2022-12-16T14:44:36.205Z,40.33
2022-12-16T14:47:22.281Z,40.27
2022-12-16T14:50:10.243Z,40.70
2022-12-16T14:52:56.645Z,43.40
2022-12-16T14:55:45.541Z,43.40
2022-12-16T14:58:32.840Z,44.57
2022-12-16T15:01:21.372Z,43.57
2022-12-16T15:04:08.269Z,45.37
2022-12-16T15:07:01.401Z,45.33
2022-12-16T15:09:50.035Z,42.33
2022-12-16T15:12:38.346Z,45.27
2022-12-16T15:15:26.722Z,43.43
2022-12-16T15:18:14.307Z,44.43
2022-12-16T15:21:18.450Z,47.23
2022-12-16T15:24:04.988Z,46.23
2022-12-16T15:26:52.134Z,44.77
2022-12-16T15:29:57.062Z,48.17
2022-12-16T15:32:53.603Z,43.67
2022-12-16T15:35:44.034Z,45.17
2022-12-16T15:38:49.925Z,48.30
2022-12-16T15:41:44.954Z,44.37
2022-12-16T15:44:35.165Z,43.60
2022-12-16T15:47:21.206Z,44.33
2022-12-16T15:50:07.926Z,44.63
2022-12-16T15:52:56.909Z,45.43
2022-12-16T15:55:54.593Z,43.10
2022-12-16T15:58:55.722Z,42.67
2022-12-16T16:01:45.679Z,43.60
2022-12-16T16:04:37.706Z,44.17
2022-12-16T16:07:23.619Z,41.50
2022-12-16T16:10:09.453Z,46.40
2022-12-16T16:12:55.919Z,47.67
2022-12-16T16:15:41.900Z,48.60
2022-12-16T16:18:29.229Z,46.17
2022-12-16T16:21:15.031Z,49.20
2022-12-16T16:24:01.077Z,50.77
2022-12-16T16:26:47.017Z,48.00
2022-12-16T16:29:34.134Z,46.60
2022-12-16T16:32:21.165Z,47.40
2022-12-16T16:35:06.957Z,45.97
2022-12-16T16:37:52.771Z,45.33
2022-12-16T16:40:47.887Z,47.43
2022-12-16T16:43:34.164Z,45.53
2022-12-16T16:46:20.475Z,46.83
2022-12-16T16:49:06.242Z,48.63
2022-12-16T16:51:52.221Z,44.40
2022-12-16T16:54:38.072Z,45.40
2022-12-16T16:57:23.932Z,43.60
2022-12-16T17:00:09.878Z,43.97
2022-12-16T17:02:55.984Z,45.07
2022-12-16T17:05:42.351Z,49.17
2022-12-16T17:08:28.099Z,45.63
2022-12-16T17:11:13.947Z,42.07
2022-12-16T17:13:59.856Z,40.87
2022-12-16T17:16:45.754Z,43.20
2022-12-16T17:19:31.899Z,40.80
2022-12-16T17:22:17.974Z,38.07
2022-12-16T17:25:03.758Z,38.60
2022-12-16T17:27:49.729Z,38.17
2022-12-16T17:30:41.892Z,36.20
2022-12-16T17:33:31.555Z,38.43
2022-12-16T17:36:17.598Z,38.40
2022-12-16T17:39:03.967Z,37.07
2022-12-16T17:41:51.253Z,38.20
2022-12-16T17:44:37.146Z,35.60
2022-12-16T17:47:23.852Z,36.27
2022-12-16T17:50:09.778Z,35.63
2022-12-16T17:52:55.521Z,41.17
2022-12-16T17:55:41.482Z,36.23
2022-12-16T17:58:30.742Z,35.40
2022-12-16T18:01:21.297Z,36.90
2022-12-16T18:04:07.626Z,41.33
2022-12-16T18:06:54.037Z,38.20
2022-12-16T18:09:40.510Z,38.63
2022-12-16T18:12:26.443Z,36.93
2022-12-16T18:15:12.295Z,35.30
2022-12-16T18:17:58.034Z,41.03
2022-12-16T18:20:43.835Z,37.00
2022-12-16T18:23:29.799Z,35.27
2022-12-16T18:26:16.591Z,43.83
2022-12-16T18:29:02.461Z,35.00
2022-12-16T18:31:48.494Z,39.13
2022-12-16T18:34:34.383Z,35.97
2022-12-16T18:37:20.427Z,36.23
2022-12-16T18:40:06.468Z,32.77
2022-12-16T18:42:52.215Z,35.77
2022-12-16T18:45:38.222Z,36.67
2022-12-16T18:48:24.046Z,41.23
2022-12-16T18:51:14.520Z,41.73
2022-12-16T18:54:00.470Z,36.73
2022-12-16T18:56:46.995Z,34.60
2022-12-16T18:59:32.903Z,35.13
2022-12-16T19:02:19.000Z,33.53
2022-12-16T19:05:05.390Z,33.30
2022-12-16T19:07:51.229Z,33.27
2022-12-16T19:10:37.215Z,33.40
2022-12-16T19:13:22.982Z,32.97
2022-12-16T19:16:16.198Z,33.67
2022-12-16T19:19:02.403Z,33.33
2022-12-16T19:21:51.907Z,32.60
2022-12-16T19:24:42.597Z,35.93
2022-12-16T19:27:28.697Z,33.43
2022-12-16T19:30:14.685Z,30.73
2022-12-16T19:33:00.725Z,31.63
2022-12-16T19:35:46.792Z,33.10
2022-12-16T19:38:33.282Z,31.47
2022-12-16T19:41:19.251Z,30.23
2022-12-16T19:44:06.336Z,34.87
2022-12-16T19:46:53.359Z,34.33
2022-12-16T19:49:44.350Z,29.77
2022-12-16T19:52:30.608Z,32.60
2022-12-16T19:55:17.731Z,33.00
2022-12-16T19:58:22.755Z,31.67
2022-12-16T20:01:08.840Z,32.43
2022-12-16T20:07:17.794Z,30.57
2022-12-16T20:10:07.733Z,29.27
2022-12-16T20:12:56.110Z,31.97
2022-12-16T20:15:42.513Z,33.57
2022-12-16T20:18:28.347Z,31.50
2022-12-16T20:21:14.216Z,28.87
2022-12-16T20:23:59.978Z,27.13
2022-12-16T20:26:45.856Z,29.93
2022-12-16T20:29:31.864Z,31.97
2022-12-16T20:32:17.831Z,29.10
2022-12-16T20:35:06.483Z,31.17
2022-12-16T20:37:52.547Z,32.57
2022-12-16T20:40:42.041Z,32.70
2022-12-16T20:43:27.769Z,35.77
2022-12-16T20:46:14.064Z,32.10
2022-12-16T20:48:59.886Z,31.90
2022-12-16T20:51:45.774Z,32.93
2022-12-16T20:54:31.980Z,32.60
2022-12-16T20:57:18.050Z,34.60
2022-12-16T21:00:04.137Z,36.73
2022-12-16T21:02:50.696Z,33.00
2022-12-16T21:05:36.528Z,31.87
2022-12-16T21:08:22.590Z,33.33
2022-12-16T21:11:08.633Z,35.50
2022-12-16T21:13:56.474Z,32.53
2022-12-16T21:16:42.625Z,34.27
2022-12-16T21:19:33.298Z,33.80
2022-12-16T21:22:20.048Z,32.03
2022-12-16T21:25:05.967Z,37.20
2022-12-16T21:27:52.138Z,39.70
2022-12-16T21:30:38.432Z,37.77
2022-12-16T21:33:24.343Z,46.13
2022-12-16T21:36:11.569Z,40.10
2022-12-16T21:38:57.487Z,40.57
2022-12-16T21:41:43.447Z,40.90
2022-12-16T21:44:29.298Z,37.37
2022-12-16T21:47:15.167Z,37.07
2022-12-16T21:50:01.083Z,40.30
2022-12-16T21:52:47.142Z,36.53
2022-12-16T21:55:33.105Z,40.37
2022-12-16T21:58:19.104Z,52.40
2022-12-16T22:01:05.457Z,53.23
2022-12-16T22:03:56.783Z,47.57
2022-12-16T22:06:48.245Z,39.23
2022-12-16T22:09:35.536Z,41.97
2022-12-16T22:12:21.636Z,41.43
2022-12-16T22:15:07.509Z,39.20
2022-12-16T22:17:58.294Z,43.57
2022-12-16T22:20:45.474Z,57.05
2022-12-16T22:23:31.623Z,47.03
2022-12-16T22:26:19.276Z,42.03
2022-12-16T22:29:06.385Z,44.57
2022-12-16T22:31:55.052Z,43.77
2022-12-16T22:34:55.558Z,50.07
2022-12-16T22:37:42.054Z,54.75
2022-12-16T22:40:28.328Z,46.87
2022-12-16T22:43:14.733Z,45.97
2022-12-16T22:46:00.735Z,45.10
2022-12-16T22:48:46.648Z,48.47
2022-12-16T22:51:33.752Z,50.30
2022-12-16T22:54:20.225Z,51.30
2022-12-16T22:57:06.198Z,57.67
2022-12-16T22:59:52.134Z,52.17
2022-12-16T23:02:41.033Z,51.60
2022-12-16T23:05:31.193Z,49.03
2022-12-16T23:08:21.775Z,53.10
2022-12-16T23:11:18.960Z,51.33
2022-12-16T23:14:05.419Z,51.63
2022-12-16T23:16:51.305Z,50.83
2022-12-16T23:19:39.411Z,50.97
2022-12-16T23:22:39.120Z,51.87
2022-12-16T23:25:25.210Z,49.53
2022-12-16T23:28:21.934Z,47.70
2022-12-16T23:31:16.978Z,50.50
2022-12-16T23:34:03.029Z,53.30
2022-12-16T23:36:49.234Z,56.67
2022-12-16T23:39:35.208Z,53.83
2022-12-16T23:42:40.910Z,54.47
2022-12-16T23:45:26.954Z,51.10
2022-12-16T23:48:20.390Z,52.00
2022-12-16T23:51:06.667Z,53.27
2022-12-16T23:53:52.560Z,50.90
2022-12-16T23:56:42.520Z,49.23
2022-12-16T23:59:28.417Z,44.03
